createdAt,value
2022-09-06T00:01:33.452Z,5.20
2022-09-06T00:04:03.268Z,5.72
2022-09-06T00:06:32.820Z,4.88
2022-09-06T00:09:02.559Z,5.53
2022-09-06T00:11:33.453Z,5.50
2022-09-06T00:14:02.984Z,5.00
2022-09-06T00:16:33.278Z,5.05
2022-09-06T00:19:02.848Z,5.53
2022-09-06T00:21:32.754Z,5.43
2022-09-06T00:24:03.894Z,5.88
2022-09-06T00:26:34.877Z,5.45
2022-09-06T00:29:04.480Z,4.57
2022-09-06T00:31:35.395Z,5.25
2022-09-06T00:34:05.191Z,5.57
2022-09-06T00:36:34.774Z,5.43
2022-09-06T00:39:04.662Z,5.78
2022-09-06T00:41:35.758Z,5.97
2022-09-06T00:44:05.970Z,5.30
2022-09-06T00:46:36.420Z,5.60
2022-09-06T00:49:13.895Z,6.00
2022-09-06T00:51:44.349Z,5.30
2022-09-06T00:54:13.881Z,4.95
2022-09-06T00:56:46.321Z,5.28
2022-09-06T00:59:17.004Z,5.13
2022-09-06T01:01:46.605Z,5.57
2022-09-06T01:04:16.601Z,5.90
2022-09-06T01:07:00.710Z,6.03
2022-09-06T01:09:52.995Z,4.93
2022-09-06T01:12:39.400Z,4.88
2022-09-06T01:15:31.237Z,5.55
2022-09-06T01:18:23.707Z,5.28
2022-09-06T01:21:22.277Z,5.90
2022-09-06T01:24:55.959Z,5.68
2022-09-06T01:28:08.229Z,4.75
2022-09-06T01:30:46.967Z,5.35
2022-09-06T01:33:26.280Z,4.90
2022-09-06T01:36:02.780Z,4.65
2022-09-06T01:38:32.548Z,4.63
2022-09-06T01:41:02.133Z,5.35
2022-09-06T01:43:38.163Z,5.22
2022-09-06T01:46:20.248Z,4.80
2022-09-06T01:49:15.925Z,4.65
2022-09-06T01:52:07.172Z,5.03
2022-09-06T01:55:07.120Z,5.28
2022-09-06T01:58:03.193Z,4.95
2022-09-06T02:00:43.940Z,5.18
2022-09-06T02:03:26.465Z,5.00
2022-09-06T02:06:03.950Z,5.35
2022-09-06T02:08:39.480Z,4.57
2022-09-06T02:11:11.153Z,4.03
2022-09-06T02:13:52.360Z,4.88
2022-09-06T02:16:28.113Z,4.90
2022-09-06T02:19:05.705Z,4.40
2022-09-06T02:21:45.240Z,4.30
2022-09-06T02:24:21.198Z,4.40
2022-09-06T02:26:51.556Z,4.85
2022-09-06T02:29:21.130Z,4.65
2022-09-06T02:31:58.529Z,4.90
2022-09-06T02:34:29.076Z,4.63
2022-09-06T02:36:58.717Z,4.57
2022-09-06T02:39:28.494Z,4.50
2022-09-06T02:41:58.973Z,4.70
2022-09-06T02:44:28.563Z,4.50
2022-09-06T02:47:01.318Z,4.95
2022-09-06T02:49:31.967Z,4.88
2022-09-06T02:52:01.568Z,4.35
2022-09-06T02:54:31.432Z,4.65
2022-09-06T02:57:01.118Z,4.80
2022-09-06T02:59:30.668Z,4.68
2022-09-06T03:02:01.597Z,5.00
2022-09-06T03:04:31.576Z,4.68
2022-09-06T03:07:01.133Z,5.07
2022-09-06T03:09:30.641Z,4.68
2022-09-06T03:12:00.315Z,4.40
2022-09-06T03:14:29.795Z,4.63
2022-09-06T03:17:00.772Z,4.55
2022-09-06T03:19:30.476Z,5.13
2022-09-06T03:22:00.009Z,4.82
2022-09-06T03:24:29.621Z,4.70
2022-09-06T03:26:59.140Z,5.05
2022-09-06T03:29:28.648Z,4.63
2022-09-06T03:31:58.154Z,4.53
2022-09-06T03:34:29.128Z,4.72
2022-09-06T03:36:58.744Z,4.97
2022-09-06T03:39:29.010Z,4.43
2022-09-06T03:41:58.605Z,5.05
2022-09-06T03:44:28.173Z,4.75
2022-09-06T03:46:57.876Z,4.00
2022-09-06T03:49:28.776Z,4.65
2022-09-06T03:51:58.745Z,4.90
2022-09-06T03:54:29.070Z,4.20
2022-09-06T03:56:58.844Z,4.28
2022-09-06T03:59:28.383Z,4.53
2022-09-06T04:01:57.992Z,4.82
2022-09-06T04:04:28.912Z,4.47
2022-09-06T04:06:58.604Z,5.50
2022-09-06T04:09:28.220Z,4.60
2022-09-06T04:11:57.734Z,4.05
2022-09-06T04:14:27.268Z,4.20
2022-09-06T04:16:56.924Z,4.82
2022-09-06T04:19:27.869Z,5.15
2022-09-06T04:21:57.478Z,5.43
2022-09-06T04:24:27.021Z,4.60
2022-09-06T04:26:56.539Z,5.18
2022-09-06T04:29:26.239Z,4.78
2022-09-06T04:31:55.821Z,5.18
2022-09-06T04:34:25.909Z,4.57
2022-09-06T04:36:56.919Z,4.55
2022-09-06T04:39:26.541Z,5.47
2022-09-06T04:41:56.156Z,4.35
2022-09-06T04:44:26.068Z,5.47
2022-09-06T04:47:09.809Z,5.88
2022-09-06T04:49:39.536Z,4.53
2022-09-06T04:52:11.137Z,4.40
2022-09-06T04:54:40.796Z,4.72
2022-09-06T04:57:10.613Z,5.15
2022-09-06T04:59:40.169Z,4.88
2022-09-06T05:02:09.727Z,4.57
2022-09-06T05:04:39.517Z,5.45
2022-09-06T05:07:10.837Z,4.93
2022-09-06T05:09:40.358Z,5.93
2022-09-06T05:12:09.937Z,5.38
2022-09-06T05:14:39.426Z,5.45
2022-09-06T05:17:09.004Z,4.60
2022-09-06T05:19:38.502Z,5.85
2022-09-06T05:22:09.396Z,5.93
2022-09-06T05:24:38.941Z,5.43
2022-09-06T05:27:08.527Z,7.47
2022-09-06T05:29:38.109Z,5.72
2022-09-06T05:32:07.910Z,7.78
2022-09-06T05:34:40.685Z,8.18
2022-09-06T05:37:11.659Z,8.07
2022-09-06T05:39:41.211Z,7.65
2022-09-06T05:42:10.761Z,7.78
2022-09-06T05:44:40.257Z,7.43
2022-09-06T05:47:09.791Z,7.30
2022-09-06T05:49:39.329Z,6.90
2022-09-06T05:52:08.849Z,6.47
2022-09-06T05:54:39.771Z,7.10
2022-09-06T05:57:09.350Z,5.80
2022-09-06T05:59:38.832Z,6.22
2022-09-06T06:02:08.389Z,6.68
2022-09-06T06:04:38.002Z,8.13
2022-09-06T06:07:07.554Z,7.15
2022-09-06T06:09:37.113Z,6.70
2022-09-06T06:12:09.607Z,5.55
2022-09-06T06:14:39.433Z,7.78
2022-09-06T06:17:09.052Z,8.10
2022-09-06T06:19:38.560Z,5.85
2022-09-06T06:22:08.076Z,6.70
2022-09-06T06:24:37.657Z,6.22
2022-09-06T06:27:08.579Z,6.13
2022-09-06T06:29:38.295Z,6.15
2022-09-06T06:32:08.033Z,5.88
2022-09-06T06:34:37.756Z,5.40
2022-09-06T06:37:12.081Z,5.43
2022-09-06T06:39:41.784Z,5.63
2022-09-06T06:42:13.269Z,5.50
2022-09-06T06:44:54.102Z,4.88
2022-09-06T06:47:23.714Z,4.97
2022-09-06T06:49:53.301Z,4.00
2022-09-06T06:52:24.235Z,4.20
2022-09-06T06:54:53.762Z,3.88
2022-09-06T06:57:24.901Z,4.10
2022-09-06T06:59:54.437Z,3.83
2022-09-06T07:02:23.999Z,3.53
2022-09-06T07:04:53.574Z,4.28
2022-09-06T07:07:30.232Z,3.85
2022-09-06T07:13:06.945Z,3.67
2022-09-06T07:15:36.496Z,3.90
2022-09-06T07:18:06.848Z,3.35
2022-09-06T07:26:18.242Z,3.83
2022-09-06T07:28:53.106Z,3.73
2022-09-06T07:34:14.862Z,4.28
2022-09-06T07:36:44.617Z,3.20
2022-09-06T07:39:14.267Z,3.83
2022-09-06T07:41:44.626Z,3.78
2022-09-06T07:44:15.726Z,3.67
2022-09-06T07:46:45.329Z,3.42
2022-09-06T07:49:14.936Z,3.58
2022-09-06T07:51:45.026Z,3.40
2022-09-06T07:54:31.191Z,3.45
2022-09-06T07:57:01.211Z,3.40
2022-09-06T07:59:32.155Z,3.13
2022-09-06T08:02:01.714Z,3.13
2022-09-06T08:04:32.610Z,2.83
2022-09-06T08:09:52.151Z,2.70
2022-09-06T08:12:21.686Z,2.80
2022-09-06T08:14:52.612Z,2.47
2022-09-06T08:17:22.169Z,3.38
2022-09-06T08:19:51.767Z,2.38
2022-09-06T08:22:21.333Z,2.80
2022-09-06T08:24:50.975Z,2.55
2022-09-06T08:27:20.535Z,2.90
2022-09-06T08:29:51.537Z,2.92
2022-09-06T08:32:21.154Z,2.78
2022-09-06T08:34:50.733Z,3.22
2022-09-06T08:37:24.814Z,2.50
2022-09-06T08:39:54.779Z,2.50
2022-09-06T08:42:24.378Z,2.35
2022-09-06T08:44:58.732Z,2.50
2022-09-06T08:47:28.816Z,2.45
2022-09-06T08:50:04.530Z,2.30
2022-09-06T08:53:16.256Z,2.40
2022-09-06T08:55:54.940Z,2.50
2022-09-06T08:58:48.502Z,2.45
2022-09-06T09:01:25.872Z,2.20
2022-09-06T09:03:59.713Z,2.25
2022-09-06T09:06:31.145Z,2.20
2022-09-06T09:09:07.560Z,1.48
2022-09-06T09:11:37.920Z,1.90
2022-09-06T09:14:18.198Z,3.10
2022-09-06T09:16:52.573Z,1.80
2022-09-06T09:19:22.819Z,1.50
2022-09-06T09:21:52.464Z,1.73
2022-09-06T09:24:22.228Z,1.65
2022-09-06T09:26:58.068Z,1.33
2022-09-06T09:29:30.301Z,1.50
2022-09-06T09:32:03.814Z,1.50
2022-09-06T09:34:36.255Z,1.70
2022-09-06T09:40:15.343Z,1.40
2022-09-06T09:42:45.909Z,1.45
2022-09-06T09:45:31.562Z,1.48
2022-09-06T09:48:22.353Z,1.48
2022-09-06T09:50:51.948Z,1.33
2022-09-06T09:53:26.060Z,1.67
2022-09-06T09:56:00.223Z,1.30
2022-09-06T09:58:36.692Z,1.80
2022-09-06T10:01:19.204Z,1.48
2022-09-06T10:09:37.980Z,1.30
2022-09-06T10:12:08.457Z,1.73
2022-09-06T10:14:44.404Z,1.40
2022-09-06T10:17:32.353Z,1.30
2022-09-06T10:20:09.130Z,1.40
2022-09-06T10:22:54.492Z,1.33
2022-09-06T10:25:43.974Z,1.30
2022-09-06T10:28:36.408Z,1.60
2022-09-06T10:31:47.587Z,1.42
2022-09-06T10:35:17.960Z,1.88
2022-09-06T10:38:00.391Z,1.95
2022-09-06T10:40:35.700Z,1.75
2022-09-06T10:43:14.514Z,1.65
2022-09-06T10:45:58.471Z,1.85
2022-09-06T10:48:33.771Z,2.28
2022-09-06T10:51:18.624Z,1.48
2022-09-06T10:53:56.607Z,1.67
2022-09-06T10:56:34.796Z,1.92
2022-09-06T11:02:19.867Z,1.98
2022-09-06T11:10:40.303Z,1.83
2022-09-06T11:13:17.271Z,1.35
2022-09-06T11:15:54.013Z,2.28
2022-09-06T11:18:29.983Z,2.38
2022-09-06T11:21:30.403Z,2.05
2022-09-06T11:24:13.407Z,1.90
2022-09-06T11:26:46.503Z,2.00
2022-09-06T11:29:24.243Z,1.90
2022-09-06T11:34:56.134Z,2.05
2022-09-06T11:37:32.653Z,2.25
2022-09-06T11:40:27.294Z,2.72
2022-09-06T11:43:47.728Z,2.05
2022-09-06T11:47:01.764Z,2.17
2022-09-06T11:49:39.221Z,2.42
2022-09-06T11:53:02.244Z,2.00
2022-09-06T11:58:22.151Z,2.47
2022-09-06T12:01:37.820Z,1.95
2022-09-06T12:04:12.206Z,3.03
2022-09-06T12:06:45.374Z,2.10
2022-09-06T12:09:40.377Z,2.10
2022-09-06T12:12:16.833Z,2.72
2022-09-06T12:14:47.159Z,2.35
2022-09-06T12:17:22.702Z,2.65
2022-09-06T12:19:54.676Z,2.83
2022-09-06T12:23:05.793Z,2.75
2022-09-06T12:25:58.467Z,3.30
2022-09-06T12:28:51.344Z,4.35
2022-09-06T12:31:38.848Z,3.42
2022-09-06T12:34:18.924Z,2.83
2022-09-06T12:36:57.956Z,2.78
2022-09-06T12:39:28.303Z,2.75
2022-09-06T12:42:03.092Z,2.80
2022-09-06T12:44:37.872Z,2.83
2022-09-06T12:47:13.966Z,3.72
2022-09-06T12:49:44.873Z,2.88
2022-09-06T12:52:19.969Z,2.72
2022-09-06T12:54:51.537Z,3.10
2022-09-06T12:57:24.512Z,2.33
2022-09-06T12:59:56.603Z,2.80
2022-09-06T13:02:41.105Z,3.72
2022-09-06T13:05:13.917Z,3.22
2022-09-06T13:07:49.309Z,2.80
2022-09-06T13:10:24.233Z,2.53
2022-09-06T13:12:57.758Z,3.22
2022-09-06T13:15:31.199Z,2.47
2022-09-06T13:18:27.306Z,2.88
2022-09-06T13:21:03.979Z,3.00
2022-09-06T13:23:44.098Z,3.03
2022-09-06T13:26:13.603Z,2.70
2022-09-06T13:28:43.183Z,3.10
2022-09-06T13:31:21.892Z,2.95
2022-09-06T13:33:58.059Z,2.45
2022-09-06T13:36:31.358Z,2.90
2022-09-06T13:39:03.612Z,2.80
2022-09-06T13:41:42.561Z,2.38
2022-09-06T13:44:31.265Z,2.58
2022-09-06T13:47:01.117Z,2.50
2022-09-06T13:49:31.668Z,3.30
2022-09-06T13:52:05.253Z,2.97
2022-09-06T13:54:35.229Z,2.38
2022-09-06T13:57:05.104Z,2.60
2022-09-06T13:59:35.221Z,2.50
2022-09-06T14:02:09.924Z,2.60
2022-09-06T14:04:40.188Z,2.28
2022-09-06T14:07:11.834Z,2.70
2022-09-06T14:09:41.320Z,3.75
2022-09-06T14:12:11.063Z,2.67
2022-09-06T14:14:40.813Z,2.67
2022-09-06T14:17:10.424Z,2.97
2022-09-06T14:19:40.547Z,2.47
2022-09-06T14:22:11.485Z,2.78
2022-09-06T14:24:41.050Z,2.60
2022-09-06T14:27:10.652Z,2.13
2022-09-06T14:29:40.063Z,3.20
2022-09-06T14:32:09.500Z,2.50
2022-09-06T14:34:38.921Z,2.90
2022-09-06T14:37:13.450Z,2.60
2022-09-06T14:39:43.387Z,3.35
2022-09-06T14:42:13.434Z,2.58
2022-09-06T14:44:43.133Z,2.95
2022-09-06T14:47:13.130Z,2.85
2022-09-06T14:49:42.733Z,2.60
2022-09-06T14:52:13.718Z,2.40
2022-09-06T14:54:43.293Z,3.60
2022-09-06T14:57:12.958Z,2.90
2022-09-06T14:59:42.570Z,2.60
2022-09-06T15:02:12.212Z,3.15
2022-09-06T15:04:42.552Z,2.95
2022-09-06T15:07:13.608Z,3.50
2022-09-06T15:09:43.305Z,3.40
2022-09-06T15:12:12.977Z,2.90
2022-09-06T15:14:43.016Z,3.22
2022-09-06T15:17:13.076Z,3.22
2022-09-06T15:19:42.776Z,2.83
2022-09-06T15:22:13.822Z,3.40
2022-09-06T15:24:43.471Z,2.78
2022-09-06T15:27:13.334Z,2.63
2022-09-06T15:29:44.623Z,2.50
2022-09-06T15:32:14.325Z,2.63
2022-09-06T15:34:44.022Z,3.92
2022-09-06T15:37:15.145Z,3.00
2022-09-06T15:39:45.039Z,2.97
2022-09-06T15:42:14.810Z,2.65
2022-09-06T15:44:44.568Z,3.20
2022-09-06T15:47:14.219Z,3.70
2022-09-06T15:49:44.004Z,2.55
2022-09-06T15:52:15.008Z,2.75
2022-09-06T15:55:02.543Z,2.67
2022-09-06T15:57:32.351Z,3.97
2022-09-06T16:00:02.325Z,2.55
2022-09-06T16:02:34.160Z,2.83
2022-09-06T16:05:03.814Z,2.92
2022-09-06T16:07:38.090Z,2.20
2022-09-06T16:10:08.494Z,2.75
2022-09-06T16:12:38.138Z,3.45
2022-09-06T16:15:09.832Z,3.22
2022-09-06T16:17:39.763Z,3.47
2022-09-06T16:20:11.853Z,2.90
2022-09-06T16:22:43.023Z,3.20
2022-09-06T16:25:12.638Z,3.22
2022-09-06T16:27:46.366Z,3.13
2022-09-06T16:30:16.259Z,2.78
2022-09-06T16:32:46.405Z,2.97
2022-09-06T16:35:16.256Z,3.25
2022-09-06T16:37:47.305Z,3.72
2022-09-06T16:40:17.223Z,3.72
2022-09-06T16:42:47.599Z,3.85
2022-09-06T16:45:17.617Z,4.53
2022-09-06T16:47:47.954Z,3.95
2022-09-06T16:50:18.033Z,3.70
2022-09-06T16:52:50.018Z,3.67
2022-09-06T16:55:20.539Z,3.28
2022-09-06T16:57:50.131Z,4.05
2022-09-06T17:00:20.073Z,3.58
2022-09-06T17:02:49.802Z,3.10
2022-09-06T17:05:19.433Z,3.20
2022-09-06T17:07:50.402Z,3.28
2022-09-06T17:10:20.082Z,3.15
2022-09-06T17:12:49.902Z,3.35
2022-09-06T17:15:20.893Z,3.10
2022-09-06T17:17:49.709Z,4.35
2022-09-06T17:20:20.619Z,3.38
2022-09-06T17:23:19.189Z,3.78
2022-09-06T17:25:53.947Z,3.70
2022-09-06T17:28:24.014Z,4.00
2022-09-06T17:30:54.327Z,3.25
2022-09-06T17:33:26.912Z,3.80
2022-09-06T17:35:56.526Z,4.53
2022-09-06T17:38:27.944Z,4.45
2022-09-06T17:41:01.112Z,3.35
2022-09-06T17:43:32.458Z,3.92
2022-09-06T17:46:02.384Z,3.78
2022-09-06T17:48:32.089Z,4.25
2022-09-06T17:51:08.328Z,4.13
2022-09-06T17:53:41.136Z,3.58
2022-09-06T17:56:14.548Z,3.65
2022-09-06T17:58:45.338Z,4.07
2022-09-06T18:01:16.647Z,4.07
2022-09-06T18:03:47.785Z,4.72
2022-09-06T18:06:22.786Z,4.50
2022-09-06T18:08:57.205Z,4.38
2022-09-06T18:11:30.665Z,4.72
2022-09-06T18:14:02.743Z,3.70
2022-09-06T18:16:34.841Z,4.18
2022-09-06T18:19:07.312Z,3.97
2022-09-06T18:21:40.980Z,4.13
2022-09-06T18:24:13.790Z,4.07
2022-09-06T18:26:44.728Z,3.97
2022-09-06T18:29:17.963Z,3.72
2022-09-06T18:31:47.619Z,4.30
2022-09-06T18:34:17.661Z,5.28
2022-09-06T18:36:47.259Z,3.97
2022-09-06T18:39:19.011Z,4.40
2022-09-06T18:42:10.968Z,3.57
2022-09-06T18:44:40.853Z,5.25
2022-09-06T18:47:12.200Z,4.57
2022-09-06T18:49:44.170Z,4.38
2022-09-06T18:52:14.662Z,4.80
2022-09-06T18:54:45.614Z,4.57
2022-09-06T18:57:15.789Z,5.03
2022-09-06T18:59:45.977Z,4.60
2022-09-06T19:02:18.531Z,4.38
2022-09-06T19:07:18.152Z,4.25
2022-09-06T19:09:49.160Z,4.93
2022-09-06T19:12:18.808Z,5.10
2022-09-06T19:14:48.444Z,4.85
2022-09-06T19:17:18.061Z,4.68
2022-09-06T19:19:47.656Z,4.40
2022-09-06T19:22:17.576Z,4.72
2022-09-06T19:24:48.605Z,5.30
2022-09-06T19:27:18.253Z,5.90
2022-09-06T19:29:48.199Z,4.47
2022-09-06T19:32:19.131Z,4.78
2022-09-06T19:34:48.765Z,5.32
2022-09-06T19:37:20.347Z,4.85
2022-09-06T19:39:51.586Z,5.07
2022-09-06T19:42:21.268Z,4.93
2022-09-06T19:44:50.977Z,5.13
2022-09-06T19:47:20.678Z,4.60
2022-09-06T19:49:50.216Z,5.53
2022-09-06T19:52:19.823Z,5.70
2022-09-06T19:54:50.776Z,4.80
2022-09-06T19:57:20.333Z,5.18
2022-09-06T19:59:50.026Z,4.90
2022-09-06T20:02:19.900Z,4.97
2022-09-06T20:04:49.630Z,4.55
2022-09-06T20:07:19.265Z,4.78
2022-09-06T20:09:53.413Z,5.00
2022-09-06T20:12:24.283Z,4.75
2022-09-06T20:14:53.896Z,6.13
2022-09-06T20:17:33.672Z,5.30
2022-09-06T20:20:05.168Z,5.78
2022-09-06T20:22:34.960Z,5.00
2022-09-06T20:25:08.633Z,5.18
2022-09-06T20:27:44.566Z,4.70
2022-09-06T20:30:14.686Z,5.15
2022-09-06T20:32:44.309Z,6.15
2022-09-06T20:35:14.049Z,4.72
2022-09-06T20:37:43.649Z,5.78
2022-09-06T20:40:14.796Z,4.25
2022-09-06T20:42:46.018Z,5.18
2022-09-06T20:45:17.666Z,5.80
2022-09-06T20:47:47.408Z,5.22
2022-09-06T20:50:17.676Z,5.95
2022-09-06T20:52:47.393Z,6.50
2022-09-06T20:55:18.513Z,6.20
2022-09-06T20:57:49.057Z,5.68
2022-09-06T21:00:19.024Z,6.95
2022-09-06T21:02:48.591Z,4.93
2022-09-06T21:05:18.313Z,5.18
2022-09-06T21:07:47.970Z,5.63
2022-09-06T21:10:19.136Z,5.80
2022-09-06T21:12:48.737Z,6.55
2022-09-06T21:15:18.332Z,6.25
2022-09-06T21:17:48.009Z,6.05
2022-09-06T21:20:17.907Z,5.70
2022-09-06T21:22:47.500Z,5.88
2022-09-06T21:25:18.589Z,5.38
2022-09-06T21:27:49.887Z,5.97
2022-09-06T21:30:22.347Z,6.07
2022-09-06T21:32:56.183Z,6.25
2022-09-06T21:35:25.865Z,5.43
2022-09-06T21:37:55.468Z,6.05
2022-09-06T21:40:26.474Z,5.60
2022-09-06T21:42:56.167Z,6.65
2022-09-06T21:45:25.817Z,5.90
2022-09-06T21:47:55.401Z,5.90
2022-09-06T21:50:24.988Z,5.95
2022-09-06T21:52:54.972Z,5.20
2022-09-06T21:55:26.103Z,5.57
2022-09-06T21:57:55.681Z,6.30
2022-09-06T22:00:25.635Z,5.70
2022-09-06T22:02:55.273Z,6.28
2022-09-06T22:05:25.297Z,5.80
2022-09-06T22:07:54.863Z,5.90
2022-09-06T22:10:27.061Z,6.47
2022-09-06T22:12:56.631Z,6.03
2022-09-06T22:15:26.402Z,6.47
2022-09-06T22:17:55.982Z,6.35
2022-09-06T22:20:25.703Z,5.90
2022-09-06T22:22:55.380Z,5.68
2022-09-06T22:25:26.461Z,6.13
2022-09-06T22:27:56.036Z,5.93
2022-09-06T22:30:25.960Z,5.90
2022-09-06T22:32:56.063Z,5.85
2022-09-06T22:35:25.682Z,6.20
2022-09-06T22:37:55.367Z,6.10
2022-09-06T22:40:26.521Z,5.95
2022-09-06T22:42:56.119Z,6.47
2022-09-06T22:45:25.730Z,5.97
2022-09-06T22:47:55.386Z,6.05
2022-09-06T22:50:24.981Z,5.93
2022-09-06T22:52:55.131Z,6.25
2022-09-06T22:55:26.240Z,6.80
2022-09-06T22:57:55.862Z,6.60
2022-09-06T23:00:26.874Z,5.38
2022-09-06T23:02:57.174Z,6.68
2022-09-06T23:05:26.823Z,5.70
2022-09-06T23:07:57.568Z,6.47
2022-09-06T23:10:28.647Z,6.10
2022-09-06T23:12:59.266Z,5.60
2022-09-06T23:15:29.017Z,5.10
2022-09-06T23:17:58.661Z,5.72
2022-09-06T23:20:28.373Z,5.82
2022-09-06T23:22:59.481Z,5.18
2022-09-06T23:25:30.593Z,5.93
2022-09-06T23:28:00.442Z,7.50
2022-09-06T23:30:30.229Z,5.50
2022-09-06T23:33:00.169Z,6.20
2022-09-06T23:35:29.833Z,6.57
2022-09-06T23:37:59.699Z,6.43
2022-09-06T23:40:30.699Z,6.65
2022-09-06T23:43:00.644Z,6.50
2022-09-06T23:45:30.344Z,6.25
2022-09-06T23:47:59.992Z,6.25
2022-09-06T23:50:29.747Z,5.15
2022-09-06T23:52:59.391Z,6.80
2022-09-06T23:55:30.412Z,7.00
2022-09-06T23:58:00.063Z,6.63
